sensor_id;sensor_type;location;lat;lon;timestamp;temperature;humidity
48744;DHT22;34538;48.836;9.174;2023-04-24T00:01:21;11.50;99.90
48744;DHT22;34538;48.836;9.174;2023-04-24T00:03:48;11.60;99.90
48744;DHT22;34538;48.836;9.174;2023-04-24T00:06:16;11.60;99.90
48744;DHT22;34538;48.836;9.174;2023-04-24T00:08:43;11.70;99.90
48744;DHT22;34538;48.836;9.174;2023-04-24T00:11:10;11.70;99.90
48744;DHT22;34538;48.836;9.174;2023-04-24T00:13:37;11.80;99.90
48744;DHT22;34538;48.836;9.174;2023-04-24T00:16:04;11.80;99.90
48744;DHT22;34538;48.836;9.174;2023-04-24T00:18:31;11.80;99.90
48744;DHT22;34538;48.836;9.174;2023-04-24T00:20:58;11.90;99.90
48744;DHT22;34538;48.836;9.174;2023-04-24T00:23:26;11.90;99.90
48744;DHT22;34538;48.836;9.174;2023-04-24T00:25:53;11.90;99.90
48744;DHT22;34538;48.836;9.174;2023-04-24T00:28:20;12.00;99.90
48744;DHT22;34538;48.836;9.174;2023-04-24T00:30:47;12.00;99.90
48744;DHT22;34538;48.836;9.174;2023-04-24T00:33:14;12.00;99.90
48744;DHT22;34538;48.836;9.174;2023-04-24T00:35:41;12.00;99.90
48744;DHT22;34538;48.836;9.174;2023-04-24T00:38:07;12.10;99.90
48744;DHT22;34538;48.836;9.174;2023-04-24T00:40:36;12.10;99.90
48744;DHT22;34538;48.836;9.174;2023-04-24T00:43:03;12.10;99.90
48744;DHT22;34538;48.836;9.174;2023-04-24T00:45:30;12.10;99.90
48744;DHT22;34538;48.836;9.174;2023-04-24T00:47:57;12.10;99.90
48744;DHT22;34538;48.836;9.174;2023-04-24T00:50:24;12.10;99.90
48744;DHT22;34538;48.836;9.174;2023-04-24T00:52:52;12.10;99.90
48744;DHT22;34538;48.836;9.174;2023-04-24T00:55:19;12.20;99.90
48744;DHT22;34538;48.836;9.174;2023-04-24T00:57:48;12.10;99.90
48744;DHT22;34538;48.836;9.174;2023-04-24T01:00:15;12.10;99.90
48744;DHT22;34538;48.836;9.174;2023-04-24T01:02:43;12.20;99.90
48744;DHT22;34538;48.836;9.174;2023-04-24T01:05:11;12.10;99.90
48744;DHT22;34538;48.836;9.174;2023-04-24T01:07:39;12.20;99.90
48744;DHT22;34538;48.836;9.174;2023-04-24T01:10:10;12.20;99.90
48744;DHT22;34538;48.836;9.174;2023-04-24T01:12:37;12.20;99.90
48744;DHT22;34538;48.836;9.174;2023-04-24T01:15:07;12.20;99.90
48744;DHT22;34538;48.836;9.174;2023-04-24T01:17:34;12.10;99.90
48744;DHT22;34538;48.836;9.174;2023-04-24T01:20:01;12.20;99.90
48744;DHT22;34538;48.836;9.174;2023-04-24T01:22:33;12.10;99.90
48744;DHT22;34538;48.836;9.174;2023-04-24T01:25:00;12.10;99.90
48744;DHT22;34538;48.836;9.174;2023-04-24T01:27:29;12.10;99.90
48744;DHT22;34538;48.836;9.174;2023-04-24T01:29:56;12.00;99.90
48744;DHT22;34538;48.836;9.174;2023-04-24T01:32:24;12.10;99.90
48744;DHT22;34538;48.836;9.174;2023-04-24T01:34:50;12.10;99.90
48744;DHT22;34538;48.836;9.174;2023-04-24T01:37:18;12.10;99.90
48744;DHT22;34538;48.836;9.174;2023-04-24T01:39:46;12.00;99.90
48744;DHT22;34538;48.836;9.174;2023-04-24T01:42:13;12.00;99.90
48744;DHT22;34538;48.836;9.174;2023-04-24T01:44:40;11.90;99.90
48744;DHT22;34538;48.836;9.174;2023-04-24T01:47:08;11.90;99.90
48744;DHT22;34538;48.836;9.174;2023-04-24T01:49:35;11.90;99.90
48744;DHT22;34538;48.836;9.174;2023-04-24T01:52:01;11.90;99.90
48744;DHT22;34538;48.836;9.174;2023-04-24T01:54:30;11.80;99.90
48744;DHT22;34538;48.836;9.174;2023-04-24T01:56:58;11.80;99.90
48744;DHT22;34538;48.836;9.174;2023-04-24T01:59:27;11.80;99.90
48744;DHT22;34538;48.836;9.174;2023-04-24T02:01:54;11.80;99.90
48744;DHT22;34538;48.836;9.174;2023-04-24T02:04:21;11.70;99.90
48744;DHT22;34538;48.836;9.174;2023-04-24T02:06:48;11.70;99.90
48744;DHT22;34538;48.836;9.174;2023-04-24T02:09:15;11.70;99.90
48744;DHT22;34538;48.836;9.174;2023-04-24T02:11:41;11.70;99.90
48744;DHT22;34538;48.836;9.174;2023-04-24T02:14:10;11.60;99.90
48744;DHT22;34538;48.836;9.174;2023-04-24T02:16:39;11.60;99.90
48744;DHT22;34538;48.836;9.174;2023-04-24T02:19:06;11.60;99.90
48744;DHT22;34538;48.836;9.174;2023-04-24T02:21:33;11.50;99.90
48744;DHT22;34538;48.836;9.174;2023-04-24T02:24:00;11.60;99.90
48744;DHT22;34538;48.836;9.174;2023-04-24T02:26:28;11.60;99.90
48744;DHT22;34538;48.836;9.174;2023-04-24T02:28:56;11.50;99.90
48744;DHT22;34538;48.836;9.174;2023-04-24T02:31:24;11.50;99.90
48744;DHT22;34538;48.836;9.174;2023-04-24T02:33:51;11.60;99.90
48744;DHT22;34538;48.836;9.174;2023-04-24T02:36:18;11.60;99.90
48744;DHT22;34538;48.836;9.174;2023-04-24T02:38:45;11.60;99.90
48744;DHT22;34538;48.836;9.174;2023-04-24T02:41:12;11.60;99.90
48744;DHT22;34538;48.836;9.174;2023-04-24T02:43:39;11.60;99.90
48744;DHT22;34538;48.836;9.174;2023-04-24T02:46:06;11.70;99.90
48744;DHT22;34538;48.836;9.174;2023-04-24T02:48:34;11.70;99.90
48744;DHT22;34538;48.836;9.174;2023-04-24T02:51:01;11.70;99.90
48744;DHT22;34538;48.836;9.174;2023-04-24T02:53:28;11.60;99.90
48744;DHT22;34538;48.836;9.174;2023-04-24T02:55:56;11.60;99.90
48744;DHT22;34538;48.836;9.174;2023-04-24T02:58:23;11.60;99.90
48744;DHT22;34538;48.836;9.174;2023-04-24T03:00:53;11.60;99.90
48744;DHT22;34538;48.836;9.174;2023-04-24T03:03:20;11.50;99.90
48744;DHT22;34538;48.836;9.174;2023-04-24T03:05:49;11.60;99.90
48744;DHT22;34538;48.836;9.174;2023-04-24T03:08:16;11.50;99.90
48744;DHT22;34538;48.836;9.174;2023-04-24T03:10:43;11.50;99.90
48744;DHT22;34538;48.836;9.174;2023-04-24T03:13:09;11.40;99.90
48744;DHT22;34538;48.836;9.174;2023-04-24T03:15:37;11.40;99.90
48744;DHT22;34538;48.836;9.174;2023-04-24T03:18:04;11.40;99.90
48744;DHT22;34538;48.836;9.174;2023-04-24T03:20:31;11.40;99.90
48744;DHT22;34538;48.836;9.174;2023-04-24T03:23:00;11.30;99.90
48744;DHT22;34538;48.836;9.174;2023-04-24T03:25:27;11.30;99.90
48744;DHT22;34538;48.836;9.174;2023-04-24T03:27:54;11.20;99.90
48744;DHT22;34538;48.836;9.174;2023-04-24T03:30:40;11.20;99.90
48744;DHT22;34538;48.836;9.174;2023-04-24T03:33:08;11.10;99.90
48744;DHT22;34538;48.836;9.174;2023-04-24T03:35:39;11.10;99.90
48744;DHT22;34538;48.836;9.174;2023-04-24T03:38:10;11.00;99.90
48744;DHT22;34538;48.836;9.174;2023-04-24T03:40:37;11.00;99.90
48744;DHT22;34538;48.836;9.174;2023-04-24T03:43:13;11.00;99.90
48744;DHT22;34538;48.836;9.174;2023-04-24T03:45:40;10.90;99.90
48744;DHT22;34538;48.836;9.174;2023-04-24T03:48:08;10.90;99.90
48744;DHT22;34538;48.836;9.174;2023-04-24T03:50:36;10.90;99.90
48744;DHT22;34538;48.836;9.174;2023-04-24T03:53:04;10.90;99.90
48744;DHT22;34538;48.836;9.174;2023-04-24T03:55:39;10.80;99.90
48744;DHT22;34538;48.836;9.174;2023-04-24T03:58:06;10.70;99.90
48744;DHT22;34538;48.836;9.174;2023-04-24T04:00:33;10.70;99.90
48744;DHT22;34538;48.836;9.174;2023-04-24T04:03:32;10.70;99.90
48744;DHT22;34538;48.836;9.174;2023-04-24T04:05:59;10.70;99.90
48744;DHT22;34538;48.836;9.174;2023-04-24T04:08:26;10.70;99.90
48744;DHT22;34538;48.836;9.174;2023-04-24T04:10:55;10.60;99.90
48744;DHT22;34538;48.836;9.174;2023-04-24T04:13:22;10.70;99.90
48744;DHT22;34538;48.836;9.174;2023-04-24T04:15:49;10.70;99.90
48744;DHT22;34538;48.836;9.174;2023-04-24T04:18:16;10.80;99.90
48744;DHT22;34538;48.836;9.174;2023-04-24T04:20:43;10.90;99.90
48744;DHT22;34538;48.836;9.174;2023-04-24T04:23:12;10.90;99.90
48744;DHT22;34538;48.836;9.174;2023-04-24T04:25:49;11.00;99.90
48744;DHT22;34538;48.836;9.174;2023-04-24T04:28:21;11.00;99.90
48744;DHT22;34538;48.836;9.174;2023-04-24T04:30:48;10.90;99.90
48744;DHT22;34538;48.836;9.174;2023-04-24T04:33:19;10.80;99.90
48744;DHT22;34538;48.836;9.174;2023-04-24T04:35:46;10.60;99.90
48744;DHT22;34538;48.836;9.174;2023-04-24T04:38:14;10.50;99.90
48744;DHT22;34538;48.836;9.174;2023-04-24T04:40:51;10.40;99.90
48744;DHT22;34538;48.836;9.174;2023-04-24T04:43:21;10.30;99.90
48744;DHT22;34538;48.836;9.174;2023-04-24T04:45:51;10.20;99.90
48744;DHT22;34538;48.836;9.174;2023-04-24T04:48:43;10.20;99.90
48744;DHT22;34538;48.836;9.174;2023-04-24T04:51:10;10.20;99.90
48744;DHT22;34538;48.836;9.174;2023-04-24T04:53:37;10.10;99.90
48744;DHT22;34538;48.836;9.174;2023-04-24T04:56:04;10.10;99.90
48744;DHT22;34538;48.836;9.174;2023-04-24T04:58:45;10.10;99.90
48744;DHT22;34538;48.836;9.174;2023-04-24T05:01:15;10.00;99.90
48744;DHT22;34538;48.836;9.174;2023-04-24T05:03:45;10.00;99.90
48744;DHT22;34538;48.836;9.174;2023-04-24T05:06:15;10.00;99.90
48744;DHT22;34538;48.836;9.174;2023-04-24T05:08:43;10.00;99.90
48744;DHT22;34538;48.836;9.174;2023-04-24T05:11:19;10.00;99.90
48744;DHT22;34538;48.836;9.174;2023-04-24T05:13:47;9.90;99.90
48744;DHT22;34538;48.836;9.174;2023-04-24T05:16:18;10.00;99.90
48744;DHT22;34538;48.836;9.174;2023-04-24T05:18:47;9.90;99.90
48744;DHT22;34538;48.836;9.174;2023-04-24T05:21:18;9.90;99.90
48744;DHT22;34538;48.836;9.174;2023-04-24T05:23:49;9.90;99.90
48744;DHT22;34538;48.836;9.174;2023-04-24T05:26:23;10.00;99.90
48744;DHT22;34538;48.836;9.174;2023-04-24T05:28:52;10.00;99.90
48744;DHT22;34538;48.836;9.174;2023-04-24T05:31:20;10.00;99.90
48744;DHT22;34538;48.836;9.174;2023-04-24T05:33:47;10.00;99.90
48744;DHT22;34538;48.836;9.174;2023-04-24T05:36:14;10.00;99.90
48744;DHT22;34538;48.836;9.174;2023-04-24T05:38:41;10.00;99.90
48744;DHT22;34538;48.836;9.174;2023-04-24T05:41:08;10.00;99.90
48744;DHT22;34538;48.836;9.174;2023-04-24T05:43:35;10.00;99.90
48744;DHT22;34538;48.836;9.174;2023-04-24T05:46:03;10.10;99.90
48744;DHT22;34538;48.836;9.174;2023-04-24T05:48:30;10.00;99.90
48744;DHT22;34538;48.836;9.174;2023-04-24T05:50:59;10.00;99.90
48744;DHT22;34538;48.836;9.174;2023-04-24T05:53:26;10.00;99.90
48744;DHT22;34538;48.836;9.174;2023-04-24T05:55:53;10.00;99.90
48744;DHT22;34538;48.836;9.174;2023-04-24T05:58:20;10.00;99.90
48744;DHT22;34538;48.836;9.174;2023-04-24T06:00:48;10.10;99.90
48744;DHT22;34538;48.836;9.174;2023-04-24T06:03:18;10.10;99.90
48744;DHT22;34538;48.836;9.174;2023-04-24T06:05:47;10.20;99.90
48744;DHT22;34538;48.836;9.174;2023-04-24T06:08:16;10.20;99.90
48744;DHT22;34538;48.836;9.174;2023-04-24T06:10:44;10.20;99.90
48744;DHT22;34538;48.836;9.174;2023-04-24T06:13:12;10.20;99.90
48744;DHT22;34538;48.836;9.174;2023-04-24T06:15:44;10.20;99.90
48744;DHT22;34538;48.836;9.174;2023-04-24T06:18:27;10.20;99.90
48744;DHT22;34538;48.836;9.174;2023-04-24T06:20:54;10.20;99.90
48744;DHT22;34538;48.836;9.174;2023-04-24T06:23:23;10.30;99.90
48744;DHT22;34538;48.836;9.174;2023-04-24T06:25:49;10.50;99.90
48744;DHT22;34538;48.836;9.174;2023-04-24T06:28:16;10.60;99.90
48744;DHT22;34538;48.836;9.174;2023-04-24T06:30:43;10.90;99.90
48744;DHT22;34538;48.836;9.174;2023-04-24T06:33:11;11.10;99.90
48744;DHT22;34538;48.836;9.174;2023-04-24T06:35:39;11.30;99.90
48744;DHT22;34538;48.836;9.174;2023-04-24T06:38:06;11.40;99.90
48744;DHT22;34538;48.836;9.174;2023-04-24T06:40:33;11.50;99.90
48744;DHT22;34538;48.836;9.174;2023-04-24T06:43:00;11.60;99.90
48744;DHT22;34538;48.836;9.174;2023-04-24T06:45:28;11.80;99.90
48744;DHT22;34538;48.836;9.174;2023-04-24T06:47:55;12.00;99.90
48744;DHT22;34538;48.836;9.174;2023-04-24T06:50:22;12.10;99.90
48744;DHT22;34538;48.836;9.174;2023-04-24T06:52:50;12.20;99.90
48744;DHT22;34538;48.836;9.174;2023-04-24T06:55:17;12.40;99.90
48744;DHT22;34538;48.836;9.174;2023-04-24T06:57:44;12.60;99.90
48744;DHT22;34538;48.836;9.174;2023-04-24T07:00:13;12.60;99.90
48744;DHT22;34538;48.836;9.174;2023-04-24T07:02:40;12.60;99.90
48744;DHT22;34538;48.836;9.174;2023-04-24T07:05:07;12.70;99.90
48744;DHT22;34538;48.836;9.174;2023-04-24T07:07:34;12.70;99.90
48744;DHT22;34538;48.836;9.174;2023-04-24T07:10:05;12.70;99.90
48744;DHT22;34538;48.836;9.174;2023-04-24T07:12:33;12.80;99.90
48744;DHT22;34538;48.836;9.174;2023-04-24T07:15:01;12.80;99.90
48744;DHT22;34538;48.836;9.174;2023-04-24T07:17:28;12.80;99.90
48744;DHT22;34538;48.836;9.174;2023-04-24T07:19:54;12.80;99.90
48744;DHT22;34538;48.836;9.174;2023-04-24T07:22:21;12.70;99.90
48744;DHT22;34538;48.836;9.174;2023-04-24T07:24:48;12.80;99.90
48744;DHT22;34538;48.836;9.174;2023-04-24T07:27:16;12.70;99.90
48744;DHT22;34538;48.836;9.174;2023-04-24T07:29:43;12.70;99.90
48744;DHT22;34538;48.836;9.174;2023-04-24T07:32:10;12.60;99.90
48744;DHT22;34538;48.836;9.174;2023-04-24T07:34:37;12.60;99.90
48744;DHT22;34538;48.836;9.174;2023-04-24T07:37:04;12.70;99.90
48744;DHT22;34538;48.836;9.174;2023-04-24T07:39:31;12.80;99.90
48744;DHT22;34538;48.836;9.174;2023-04-24T07:41:58;13.00;99.90
48744;DHT22;34538;48.836;9.174;2023-04-24T07:44:28;13.20;99.90
48744;DHT22;34538;48.836;9.174;2023-04-24T07:46:55;13.30;99.90
48744;DHT22;34538;48.836;9.174;2023-04-24T07:49:22;13.40;99.90
48744;DHT22;34538;48.836;9.174;2023-04-24T07:51:49;13.50;99.90
48744;DHT22;34538;48.836;9.174;2023-04-24T07:54:16;13.50;99.90
48744;DHT22;34538;48.836;9.174;2023-04-24T07:56:43;13.60;99.90
48744;DHT22;34538;48.836;9.174;2023-04-24T07:59:10;13.70;99.90
48744;DHT22;34538;48.836;9.174;2023-04-24T08:01:38;13.80;99.90
48744;DHT22;34538;48.836;9.174;2023-04-24T08:04:06;13.90;99.90
48744;DHT22;34538;48.836;9.174;2023-04-24T08:06:32;13.90;99.90
48744;DHT22;34538;48.836;9.174;2023-04-24T08:09:00;13.90;99.90
48744;DHT22;34538;48.836;9.174;2023-04-24T08:11:27;13.90;99.90
48744;DHT22;34538;48.836;9.174;2023-04-24T08:13:54;13.80;99.90
48744;DHT22;34538;48.836;9.174;2023-04-24T08:16:21;13.80;99.90
48744;DHT22;34538;48.836;9.174;2023-04-24T08:18:50;13.70;99.90
48744;DHT22;34538;48.836;9.174;2023-04-24T08:21:17;13.70;99.90
48744;DHT22;34538;48.836;9.174;2023-04-24T08:23:45;13.70;99.90
48744;DHT22;34538;48.836;9.174;2023-04-24T08:26:12;13.70;99.90
48744;DHT22;34538;48.836;9.174;2023-04-24T08:28:40;13.60;99.90
48744;DHT22;34538;48.836;9.174;2023-04-24T08:31:06;13.50;99.90
48744;DHT22;34538;48.836;9.174;2023-04-24T08:33:33;13.40;99.90
48744;DHT22;34538;48.836;9.174;2023-04-24T08:36:04;13.20;99.90
48744;DHT22;34538;48.836;9.174;2023-04-24T08:38:31;13.00;99.90
48744;DHT22;34538;48.836;9.174;2023-04-24T08:41:00;13.00;99.90
48744;DHT22;34538;48.836;9.174;2023-04-24T08:43:28;13.00;99.90
48744;DHT22;34538;48.836;9.174;2023-04-24T08:45:56;12.90;99.90
48744;DHT22;34538;48.836;9.174;2023-04-24T08:48:23;12.90;99.90
48744;DHT22;34538;48.836;9.174;2023-04-24T08:50:50;13.00;99.90
48744;DHT22;34538;48.836;9.174;2023-04-24T08:53:19;12.90;99.90
48744;DHT22;34538;48.836;9.174;2023-04-24T08:55:47;12.90;99.90
48744;DHT22;34538;48.836;9.174;2023-04-24T08:58:16;12.90;99.90
48744;DHT22;34538;48.836;9.174;2023-04-24T09:00:43;12.90;99.90
48744;DHT22;34538;48.836;9.174;2023-04-24T09:03:13;12.90;99.90
48744;DHT22;34538;48.836;9.174;2023-04-24T09:05:42;12.90;99.90
48744;DHT22;34538;48.836;9.174;2023-04-24T09:08:12;13.00;99.90
48744;DHT22;34538;48.836;9.174;2023-04-24T09:10:41;13.10;99.90
48744;DHT22;34538;48.836;9.174;2023-04-24T09:13:08;13.20;99.90
48744;DHT22;34538;48.836;9.174;2023-04-24T09:15:36;13.30;99.90
48744;DHT22;34538;48.836;9.174;2023-04-24T09:18:04;13.30;99.90
48744;DHT22;34538;48.836;9.174;2023-04-24T09:20:31;13.20;99.90
48744;DHT22;34538;48.836;9.174;2023-04-24T09:22:58;13.10;99.90
48744;DHT22;34538;48.836;9.174;2023-04-24T09:25:31;12.90;99.90
48744;DHT22;34538;48.836;9.174;2023-04-24T09:28:02;12.60;99.90
48744;DHT22;34538;48.836;9.174;2023-04-24T09:30:29;12.40;99.90
48744;DHT22;34538;48.836;9.174;2023-04-24T09:33:17;12.30;99.90
48744;DHT22;34538;48.836;9.174;2023-04-24T09:35:50;12.20;99.90
48744;DHT22;34538;48.836;9.174;2023-04-24T09:38:18;12.20;99.90
48744;DHT22;34538;48.836;9.174;2023-04-24T09:40:45;12.20;99.90
48744;DHT22;34538;48.836;9.174;2023-04-24T09:43:13;12.20;99.90
48744;DHT22;34538;48.836;9.174;2023-04-24T09:45:40;12.30;99.90
48744;DHT22;34538;48.836;9.174;2023-04-24T09:48:09;12.50;99.90
48744;DHT22;34538;48.836;9.174;2023-04-24T09:50:36;12.70;99.90
48744;DHT22;34538;48.836;9.174;2023-04-24T09:53:05;13.00;99.90
48744;DHT22;34538;48.836;9.174;2023-04-24T09:55:39;13.10;99.90
48744;DHT22;34538;48.836;9.174;2023-04-24T09:58:08;13.10;99.90
48744;DHT22;34538;48.836;9.174;2023-04-24T10:00:36;13.10;99.90
48744;DHT22;34538;48.836;9.174;2023-04-24T10:03:04;13.00;99.90
48744;DHT22;34538;48.836;9.174;2023-04-24T10:05:32;13.10;99.90
48744;DHT22;34538;48.836;9.174;2023-04-24T10:08:04;13.10;99.90
48744;DHT22;34538;48.836;9.174;2023-04-24T10:10:31;13.10;99.90
48744;DHT22;34538;48.836;9.174;2023-04-24T10:12:59;13.10;99.90
48744;DHT22;34538;48.836;9.174;2023-04-24T10:15:26;13.20;99.90
48744;DHT22;34538;48.836;9.174;2023-04-24T10:17:54;13.20;99.90
48744;DHT22;34538;48.836;9.174;2023-04-24T10:20:24;13.40;99.90
48744;DHT22;34538;48.836;9.174;2023-04-24T10:22:52;13.50;99.80
48744;DHT22;34538;48.836;9.174;2023-04-24T10:25:20;13.60;99.10
48744;DHT22;34538;48.836;9.174;2023-04-24T10:27:48;13.70;99.10
48744;DHT22;34538;48.836;9.174;2023-04-24T10:30:16;13.60;99.20
48744;DHT22;34538;48.836;9.174;2023-04-24T10:32:43;13.50;98.50
48744;DHT22;34538;48.836;9.174;2023-04-24T10:35:14;13.40;98.90
48744;DHT22;34538;48.836;9.174;2023-04-24T10:37:45;13.30;99.20
48744;DHT22;34538;48.836;9.174;2023-04-24T10:40:17;13.20;99.10
48744;DHT22;34538;48.836;9.174;2023-04-24T10:42:47;13.00;99.00
48744;DHT22;34538;48.836;9.174;2023-04-24T10:45:17;12.90;98.20
48744;DHT22;34538;48.836;9.174;2023-04-24T10:47:56;12.90;98.90
48744;DHT22;34538;48.836;9.174;2023-04-24T10:50:27;12.90;99.30
48744;DHT22;34538;48.836;9.174;2023-04-24T10:53:05;12.90;99.70
48744;DHT22;34538;48.836;9.174;2023-04-24T10:55:44;12.90;99.10
48744;DHT22;34538;48.836;9.174;2023-04-24T10:58:11;13.00;99.40
48744;DHT22;34538;48.836;9.174;2023-04-24T11:00:38;13.00;98.90
48744;DHT22;34538;48.836;9.174;2023-04-24T11:03:08;13.10;99.10
48744;DHT22;34538;48.836;9.174;2023-04-24T11:05:59;13.10;99.00
48744;DHT22;34538;48.836;9.174;2023-04-24T11:08:28;13.10;99.70
48744;DHT22;34538;48.836;9.174;2023-04-24T11:11:00;13.00;99.10
48744;DHT22;34538;48.836;9.174;2023-04-24T11:14:04;13.00;98.90
48744;DHT22;34538;48.836;9.174;2023-04-24T11:16:33;12.90;99.30
48744;DHT22;34538;48.836;9.174;2023-04-24T11:19:03;13.00;99.20
48744;DHT22;34538;48.836;9.174;2023-04-24T11:21:42;13.20;99.90
48744;DHT22;34538;48.836;9.174;2023-04-24T11:24:38;13.50;99.80
48744;DHT22;34538;48.836;9.174;2023-04-24T11:27:13;13.70;99.10
48744;DHT22;34538;48.836;9.174;2023-04-24T11:29:47;13.90;99.20
48744;DHT22;34538;48.836;9.174;2023-04-24T11:32:25;14.10;99.40
48744;DHT22;34538;48.836;9.174;2023-04-24T11:34:54;14.30;99.60
48744;DHT22;34538;48.836;9.174;2023-04-24T11:37:24;14.40;97.90
48744;DHT22;34538;48.836;9.174;2023-04-24T11:39:53;14.50;98.00
48744;DHT22;34538;48.836;9.174;2023-04-24T11:42:21;14.60;98.00
48744;DHT22;34538;48.836;9.174;2023-04-24T11:44:49;14.60;97.70
48744;DHT22;34538;48.836;9.174;2023-04-24T11:47:16;14.40;97.80
48744;DHT22;34538;48.836;9.174;2023-04-24T11:49:43;14.30;98.20
48744;DHT22;34538;48.836;9.174;2023-04-24T11:52:10;14.10;98.30
48744;DHT22;34538;48.836;9.174;2023-04-24T11:54:47;13.90;99.00
48744;DHT22;34538;48.836;9.174;2023-04-24T11:57:14;13.80;99.00
48744;DHT22;34538;48.836;9.174;2023-04-24T11:59:41;13.70;99.50
48744;DHT22;34538;48.836;9.174;2023-04-24T12:02:07;13.80;99.60
48744;DHT22;34538;48.836;9.174;2023-04-24T12:04:43;13.80;98.90
48744;DHT22;34538;48.836;9.174;2023-04-24T12:07:10;14.00;98.90
48744;DHT22;34538;48.836;9.174;2023-04-24T12:09:43;14.10;98.70
48744;DHT22;34538;48.836;9.174;2023-04-24T12:12:11;14.10;98.10
48744;DHT22;34538;48.836;9.174;2023-04-24T12:14:47;14.20;98.50
48744;DHT22;34538;48.836;9.174;2023-04-24T12:17:14;14.20;98.60
48744;DHT22;34538;48.836;9.174;2023-04-24T12:19:45;14.10;98.90
48744;DHT22;34538;48.836;9.174;2023-04-24T12:22:13;14.00;98.90
48744;DHT22;34538;48.836;9.174;2023-04-24T12:24:58;13.80;99.30
48744;DHT22;34538;48.836;9.174;2023-04-24T12:27:26;13.70;99.60
48744;DHT22;34538;48.836;9.174;2023-04-24T12:29:53;13.60;99.50
48744;DHT22;34538;48.836;9.174;2023-04-24T12:32:22;13.70;99.50
48744;DHT22;34538;48.836;9.174;2023-04-24T12:34:49;13.70;99.00
48744;DHT22;34538;48.836;9.174;2023-04-24T12:37:17;13.70;98.90
48744;DHT22;34538;48.836;9.174;2023-04-24T12:40:02;13.70;99.60
48744;DHT22;34538;48.836;9.174;2023-04-24T12:42:31;13.50;99.00
48744;DHT22;34538;48.836;9.174;2023-04-24T12:44:59;13.60;98.70
48744;DHT22;34538;48.836;9.174;2023-04-24T12:47:27;13.60;99.30
48744;DHT22;34538;48.836;9.174;2023-04-24T12:49:54;13.70;99.30
48744;DHT22;34538;48.836;9.174;2023-04-24T12:52:21;13.70;98.70
48744;DHT22;34538;48.836;9.174;2023-04-24T12:54:49;13.70;99.10
48744;DHT22;34538;48.836;9.174;2023-04-24T12:57:18;13.70;99.30
48744;DHT22;34538;48.836;9.174;2023-04-24T12:59:45;13.60;99.10
48744;DHT22;34538;48.836;9.174;2023-04-24T13:02:12;13.50;99.80
48744;DHT22;34538;48.836;9.174;2023-04-24T13:04:39;13.40;99.90
48744;DHT22;34538;48.836;9.174;2023-04-24T13:07:06;13.20;99.90
48744;DHT22;34538;48.836;9.174;2023-04-24T13:09:34;13.20;99.90
48744;DHT22;34538;48.836;9.174;2023-04-24T13:12:01;13.20;99.90
48744;DHT22;34538;48.836;9.174;2023-04-24T13:14:29;13.30;99.90
48744;DHT22;34538;48.836;9.174;2023-04-24T13:16:56;13.50;99.90
48744;DHT22;34538;48.836;9.174;2023-04-24T13:19:24;13.50;99.90
48744;DHT22;34538;48.836;9.174;2023-04-24T13:21:52;13.60;99.90
48744;DHT22;34538;48.836;9.174;2023-04-24T13:24:19;13.50;99.90
48744;DHT22;34538;48.836;9.174;2023-04-24T13:26:45;13.50;99.90
48744;DHT22;34538;48.836;9.174;2023-04-24T13:29:12;13.50;99.90
48744;DHT22;34538;48.836;9.174;2023-04-24T13:31:41;13.50;99.90
48744;DHT22;34538;48.836;9.174;2023-04-24T13:34:08;13.50;99.90
48744;DHT22;34538;48.836;9.174;2023-04-24T13:36:34;13.50;99.90
48744;DHT22;34538;48.836;9.174;2023-04-24T13:39:02;13.50;99.90
48744;DHT22;34538;48.836;9.174;2023-04-24T13:41:29;13.50;99.90
48744;DHT22;34538;48.836;9.174;2023-04-24T13:43:56;13.40;99.90
48744;DHT22;34538;48.836;9.174;2023-04-24T13:46:23;13.30;99.90
48744;DHT22;34538;48.836;9.174;2023-04-24T13:48:51;13.20;99.90
48744;DHT22;34538;48.836;9.174;2023-04-24T13:51:18;13.20;99.90
48744;DHT22;34538;48.836;9.174;2023-04-24T13:53:45;13.20;99.90
48744;DHT22;34538;48.836;9.174;2023-04-24T13:56:12;13.30;99.90
48744;DHT22;34538;48.836;9.174;2023-04-24T13:58:39;13.40;99.90
48744;DHT22;34538;48.836;9.174;2023-04-24T14:01:06;13.40;99.90
48744;DHT22;34538;48.836;9.174;2023-04-24T14:03:33;13.50;99.90
48744;DHT22;34538;48.836;9.174;2023-04-24T14:06:01;13.50;99.90
48744;DHT22;34538;48.836;9.174;2023-04-24T14:08:28;13.50;99.90
48744;DHT22;34538;48.836;9.174;2023-04-24T14:10:55;13.50;99.90
48744;DHT22;34538;48.836;9.174;2023-04-24T14:13:22;13.60;99.90
48744;DHT22;34538;48.836;9.174;2023-04-24T14:15:51;13.70;99.90
48744;DHT22;34538;48.836;9.174;2023-04-24T14:18:18;13.70;99.90
48744;DHT22;34538;48.836;9.174;2023-04-24T14:20:45;13.70;99.90
48744;DHT22;34538;48.836;9.174;2023-04-24T14:23:13;13.70;99.90
48744;DHT22;34538;48.836;9.174;2023-04-24T14:25:40;13.70;99.90
48744;DHT22;34538;48.836;9.174;2023-04-24T14:28:07;13.80;99.90
48744;DHT22;34538;48.836;9.174;2023-04-24T14:30:34;13.80;99.90
48744;DHT22;34538;48.836;9.174;2023-04-24T14:33:03;13.90;99.90
48744;DHT22;34538;48.836;9.174;2023-04-24T14:35:29;14.00;99.90
48744;DHT22;34538;48.836;9.174;2023-04-24T14:37:59;14.00;99.90
48744;DHT22;34538;48.836;9.174;2023-04-24T14:40:28;14.00;99.90
48744;DHT22;34538;48.836;9.174;2023-04-24T14:42:55;13.90;99.90
48744;DHT22;34538;48.836;9.174;2023-04-24T14:45:22;13.80;99.90
48744;DHT22;34538;48.836;9.174;2023-04-24T14:47:49;13.80;99.90
48744;DHT22;34538;48.836;9.174;2023-04-24T14:50:16;13.70;99.90
48744;DHT22;34538;48.836;9.174;2023-04-24T14:52:43;13.70;99.90
48744;DHT22;34538;48.836;9.174;2023-04-24T14:55:10;13.70;99.90
48744;DHT22;34538;48.836;9.174;2023-04-24T14:57:38;13.70;99.90
48744;DHT22;34538;48.836;9.174;2023-04-24T15:00:06;13.70;99.90
48744;DHT22;34538;48.836;9.174;2023-04-24T15:02:34;13.70;99.90
48744;DHT22;34538;48.836;9.174;2023-04-24T15:05:06;13.70;99.90
48744;DHT22;34538;48.836;9.174;2023-04-24T15:07:33;13.70;99.90
48744;DHT22;34538;48.836;9.174;2023-04-24T15:10:01;13.70;99.90
48744;DHT22;34538;48.836;9.174;2023-04-24T15:12:28;13.70;99.90
48744;DHT22;34538;48.836;9.174;2023-04-24T15:14:57;13.60;99.80
48744;DHT22;34538;48.836;9.174;2023-04-24T15:17:24;13.50;99.90
48744;DHT22;34538;48.836;9.174;2023-04-24T15:19:51;13.40;99.90
48744;DHT22;34538;48.836;9.174;2023-04-24T15:22:18;13.40;99.90
48744;DHT22;34538;48.836;9.174;2023-04-24T15:24:44;13.30;99.90
48744;DHT22;34538;48.836;9.174;2023-04-24T15:27:11;13.30;99.90
48744;DHT22;34538;48.836;9.174;2023-04-24T15:29:38;13.20;99.90
48744;DHT22;34538;48.836;9.174;2023-04-24T15:32:06;13.20;99.90
48744;DHT22;34538;48.836;9.174;2023-04-24T15:34:33;13.10;99.90
48744;DHT22;34538;48.836;9.174;2023-04-24T15:37:00;13.10;99.90
48744;DHT22;34538;48.836;9.174;2023-04-24T15:39:27;13.10;99.90